createdAt,value
2022-10-26T00:00:43.646Z,95928.28
2022-10-26T00:02:46.629Z,95936.41
2022-10-26T00:04:49.617Z,95937.13
2022-10-26T00:06:52.445Z,95927.16
2022-10-26T00:08:55.970Z,95930.13
2022-10-26T00:10:59.245Z,95936.94
2022-10-26T00:13:02.024Z,95931.53
2022-10-26T00:15:05.607Z,95935.78
2022-10-26T00:17:09.883Z,95932.28
2022-10-26T00:19:12.815Z,95932.84
2022-10-26T00:21:15.874Z,95727.06
2022-10-26T00:23:18.640Z,95926.91
2022-10-26T00:25:21.422Z,95933.38
2022-10-26T00:27:24.305Z,95928.28
2022-10-26T00:29:27.045Z,95938.84
2022-10-26T00:31:29.871Z,95930.50
2022-10-26T00:33:34.636Z,95937.53
2022-10-26T00:35:46.912Z,95935.09
2022-10-26T00:37:50.085Z,95931.53
2022-10-26T00:39:52.968Z,95940.16
2022-10-26T00:41:55.898Z,95700.13
2022-10-26T00:43:59.313Z,95936.88
2022-10-26T00:46:04.282Z,95931.81
2022-10-26T00:48:13.890Z,95932.66
2022-10-26T00:50:21.961Z,95934.56
2022-10-26T00:52:25.152Z,95941.84
2022-10-26T00:54:27.951Z,95938.34
2022-10-26T00:56:32.350Z,95925.94
2022-10-26T00:58:36.795Z,95723.72
2022-10-26T01:00:41.936Z,95879.16
2022-10-26T01:02:48.004Z,95817.34
2022-10-26T01:04:51.411Z,95905.44
2022-10-26T01:06:56.533Z,95895.44
2022-10-26T01:08:59.386Z,95964.56
2022-10-26T01:11:03.030Z,95897.88
2022-10-26T01:13:06.508Z,95896.53
2022-10-26T01:15:10.528Z,95900.31
2022-10-26T01:17:29.673Z,95904.63
2022-10-26T01:20:10.441Z,95900.28
2022-10-26T01:22:18.757Z,95719.94
2022-10-26T01:24:33.546Z,95571.22
2022-10-26T01:29:32.466Z,95881.94
2022-10-26T01:31:43.288Z,95878.69
2022-10-26T01:33:52.209Z,95880.84
2022-10-26T01:36:03.635Z,95808.47
2022-10-26T01:38:12.261Z,95880.84
2022-10-26T01:40:30.575Z,95696.84
2022-10-26T01:42:35.909Z,95582.50
2022-10-26T01:44:42.781Z,95711.91
2022-10-26T01:46:50.476Z,95877.06
2022-10-26T01:48:59.292Z,95883.28
2022-10-26T01:51:04.736Z,95871.69
2022-10-26T01:53:07.478Z,95853.31
2022-10-26T01:55:45.589Z,95851.72
2022-10-26T01:57:52.125Z,95860.09
2022-10-26T02:00:03.590Z,95868.19
2022-10-26T02:02:42.752Z,95882.09
2022-10-26T02:04:59.382Z,95886.72
2022-10-26T02:07:04.721Z,95418.09
2022-10-26T02:09:13.537Z,95894.22
2022-10-26T02:11:25.884Z,95332.63
2022-10-26T02:13:34.592Z,95909.59
2022-10-26T02:15:46.763Z,95911.50
2022-10-26T02:17:57.540Z,95908.28
2022-10-26T02:20:04.397Z,95879.00
2022-10-26T02:22:14.217Z,95904.50
2022-10-26T02:24:18.503Z,95901.50
2022-10-26T02:26:25.299Z,95902.88
2022-10-26T02:28:32.167Z,95895.00
2022-10-26T02:30:37.363Z,95893.69
2022-10-26T02:32:45.295Z,95905.84
2022-10-26T02:34:55.344Z,95898.84
2022-10-26T02:37:01.376Z,95909.34
2022-10-26T02:39:06.231Z,95904.47
2022-10-26T02:41:11.826Z,95908.84
2022-10-26T02:43:16.462Z,95915.09
2022-10-26T02:45:24.225Z,95918.91
2022-10-26T02:47:28.425Z,95920.28
2022-10-26T02:49:31.416Z,95796.31
2022-10-26T02:51:41.052Z,95930.53
2022-10-26T02:53:50.658Z,95933.78
2022-10-26T02:55:53.864Z,95754.50
2022-10-26T02:58:00.852Z,95934.59
2022-10-26T03:00:04.951Z,95809.56
2022-10-26T03:02:07.946Z,95938.91
2022-10-26T03:04:10.994Z,95956.72
2022-10-26T03:06:13.954Z,95954.00
2022-10-26T03:08:18.125Z,95829.19
2022-10-26T03:10:21.072Z,95947.78
2022-10-26T03:12:23.993Z,95949.44
2022-10-26T03:14:26.916Z,95762.56
2022-10-26T03:16:29.669Z,95950.53
2022-10-26T03:18:32.438Z,95955.91
2022-10-26T03:20:35.490Z,95961.31
2022-10-26T03:22:38.226Z,95965.66
2022-10-26T03:24:42.404Z,95890.00
2022-10-26T03:26:45.300Z,95958.09
2022-10-26T03:28:48.113Z,95972.66
2022-10-26T03:30:51.075Z,95868.06
2022-10-26T03:32:54.882Z,95967.78
2022-10-26T03:34:57.617Z,95949.69
2022-10-26T03:37:00.608Z,95907.81
2022-10-26T03:39:04.066Z,95723.16
2022-10-26T03:41:08.353Z,95953.75
2022-10-26T03:43:11.198Z,95944.03
2022-10-26T03:45:13.932Z,95949.44
2022-10-26T03:47:16.696Z,95934.59
2022-10-26T03:49:19.512Z,95904.63
2022-10-26T03:51:22.314Z,95514.91
2022-10-26T03:53:25.046Z,95786.38
2022-10-26T03:55:27.879Z,95896.50
2022-10-26T03:57:32.130Z,95888.41
2022-10-26T03:59:34.974Z,95905.13
2022-10-26T04:01:37.761Z,95954.31
2022-10-26T04:03:40.814Z,95956.72
2022-10-26T04:05:43.583Z,95960.78
2022-10-26T04:07:52.690Z,95942.69
2022-10-26T04:09:55.496Z,95959.41
2022-10-26T04:11:58.248Z,95972.09
2022-10-26T04:14:02.460Z,95668.72
2022-10-26T04:16:05.603Z,95884.53
2022-10-26T04:18:08.304Z,95960.22
2022-10-26T04:20:12.126Z,95988.03
2022-10-26T04:22:15.364Z,95767.94
2022-10-26T04:24:18.123Z,95938.38
2022-10-26T04:26:20.967Z,95871.28
2022-10-26T04:28:24.256Z,95944.56
2022-10-26T04:30:28.350Z,95942.13
2022-10-26T04:32:31.066Z,95935.41
2022-10-26T04:34:33.980Z,95935.41
2022-10-26T04:36:36.682Z,95932.97
2022-10-26T04:38:39.386Z,95935.94
2022-10-26T04:40:42.081Z,95940.25
2022-10-26T04:42:45.909Z,95939.16
2022-10-26T04:44:48.611Z,95944.56
2022-10-26T04:46:52.694Z,95942.41
2022-10-26T04:48:55.359Z,95938.34
2022-10-26T04:50:59.702Z,95937.50
2022-10-26T04:53:02.758Z,95679.88
2022-10-26T04:55:06.875Z,95879.38
2022-10-26T04:57:09.556Z,95952.00
2022-10-26T04:59:12.201Z,95946.84
2022-10-26T05:01:14.954Z,95953.59
2022-10-26T05:03:19.124Z,95947.66
2022-10-26T05:05:21.910Z,95837.47
2022-10-26T05:07:24.722Z,95953.66
2022-10-26T05:09:27.856Z,95944.47
2022-10-26T05:11:30.634Z,95948.25
2022-10-26T05:13:33.572Z,95888.25
2022-10-26T05:15:36.566Z,95953.13
2022-10-26T05:17:39.532Z,95960.66
2022-10-26T05:19:43.949Z,95964.13
2022-10-26T05:21:47.074Z,95953.66
2022-10-26T05:23:55.225Z,95966.28
2022-10-26T05:25:57.994Z,95954.75
2022-10-26T05:28:01.720Z,95865.91
2022-10-26T05:32:12.882Z,95961.50
2022-10-26T05:34:15.689Z,95952.31
2022-10-26T05:36:20.115Z,95962.03
2022-10-26T05:38:22.871Z,95955.56
2022-10-26T05:40:25.898Z,95928.19
2022-10-26T05:42:28.723Z,95939.03
2022-10-26T05:44:31.643Z,95965.59
2022-10-26T05:46:34.430Z,95971.81
2022-10-26T05:48:37.165Z,95982.88
2022-10-26T05:50:40.056Z,95982.31
2022-10-26T05:52:45.888Z,95986.94
2022-10-26T05:54:48.878Z,95986.13
2022-10-26T05:56:52.215Z,95991.53
2022-10-26T05:58:55.585Z,95990.72
2022-10-26T06:01:14.154Z,96002.34
2022-10-26T06:05:43.814Z,95530.97
2022-10-26T06:07:49.022Z,96014.22
2022-10-26T06:09:52.520Z,96013.66
2022-10-26T06:11:55.958Z,96017.47
2022-10-26T06:14:00.517Z,95997.47
2022-10-26T06:16:18.449Z,96013.97
2022-10-26T06:18:30.786Z,96013.44
2022-10-26T06:20:45.811Z,96019.91
2022-10-26T06:23:00.589Z,96014.78
2022-10-26T06:25:13.843Z,96026.94
2022-10-26T06:27:27.000Z,96035.31
2022-10-26T06:29:41.514Z,96041.78
2022-10-26T06:31:44.937Z,96042.88
2022-10-26T06:33:47.868Z,96047.75
2022-10-26T06:35:59.761Z,96048.03
2022-10-26T06:38:09.458Z,96042.34
2022-10-26T06:40:14.797Z,96046.13
2022-10-26T06:42:18.135Z,96044.50
2022-10-26T06:44:23.690Z,96048.28
2022-10-26T06:46:34.477Z,95980.13
2022-10-26T06:48:47.560Z,96054.25
2022-10-26T06:50:53.866Z,96056.94
2022-10-26T06:53:05.256Z,96052.63
2022-10-26T06:55:16.301Z,96065.59
2022-10-26T06:57:21.176Z,96048.31
2022-10-26T06:59:34.922Z,96058.56
2022-10-26T07:01:37.747Z,96092.06
2022-10-26T07:03:40.656Z,96064.78
2022-10-26T07:05:44.255Z,96040.47
2022-10-26T07:07:49.252Z,96077.50
2022-10-26T07:09:52.807Z,96078.56
2022-10-26T07:11:56.943Z,96078.84
2022-10-26T07:13:59.746Z,96082.09
2022-10-26T07:16:02.459Z,95870.78
2022-10-26T07:18:06.871Z,96079.38
2022-10-26T07:20:10.445Z,96089.38
2022-10-26T07:22:13.651Z,96085.34
2022-10-26T07:24:16.453Z,95834.09
2022-10-26T07:26:19.406Z,96088.31
2022-10-26T07:28:23.471Z,96092.38
2022-10-26T07:30:26.470Z,96103.16
2022-10-26T07:32:29.703Z,96098.03
2022-10-26T07:34:32.365Z,96099.91
2022-10-26T07:36:36.803Z,96111.53
2022-10-26T07:38:40.166Z,96108.28
2022-10-26T07:40:42.827Z,96121.31
2022-10-26T07:42:47.672Z,96114.53
2022-10-26T07:44:52.001Z,96122.38
2022-10-26T07:46:54.865Z,96121.03
2022-10-26T07:48:57.536Z,96114.28
2022-10-26T07:51:03.170Z,96121.03
2022-10-26T07:53:06.057Z,96117.22
2022-10-26T07:55:10.640Z,95945.13
2022-10-26T07:57:13.431Z,96025.88
2022-10-26T07:59:17.049Z,96118.56
2022-10-26T08:01:21.708Z,96171.31
2022-10-26T08:03:24.713Z,95823.91
2022-10-26T08:05:27.580Z,96129.31
2022-10-26T08:07:30.477Z,96124.41
2022-10-26T08:09:33.164Z,95665.84
2022-10-26T08:11:37.063Z,96137.34
2022-10-26T08:13:39.765Z,96131.91
2022-10-26T08:15:42.501Z,96131.91
2022-10-26T08:17:46.644Z,96130.78
2022-10-26T08:19:50.220Z,96136.22
2022-10-26T08:21:53.082Z,96136.75
2022-10-26T08:23:55.788Z,96132.13
2022-10-26T08:26:00.172Z,96143.22
2022-10-26T08:28:04.122Z,96138.59
2022-10-26T08:30:07.973Z,96137.19
2022-10-26T08:32:10.865Z,96127.16
2022-10-26T08:34:15.191Z,96132.81
2022-10-26T08:36:24.058Z,96140.09
2022-10-26T08:38:27.108Z,96137.69
2022-10-26T08:40:33.095Z,96134.94
2022-10-26T08:42:41.674Z,96133.09
2022-10-26T08:44:47.761Z,96124.00
2022-10-26T08:46:55.582Z,96143.09
2022-10-26T08:49:05.694Z,96150.63
2022-10-26T08:51:15.539Z,96156.31
2022-10-26T08:53:25.451Z,95938.41
2022-10-26T08:55:33.813Z,96161.66
2022-10-26T08:57:41.270Z,96170.34
2022-10-26T08:59:50.168Z,96173.88
2022-10-26T09:01:52.949Z,96160.91
2022-10-26T09:03:57.817Z,96166.59
2022-10-26T09:06:26.138Z,96173.38
2022-10-26T09:08:35.614Z,96174.44
2022-10-26T09:10:41.882Z,96176.50
2022-10-26T09:12:50.224Z,96180.72
2022-10-26T09:15:04.365Z,94712.06
2022-10-26T09:17:17.269Z,96171.66
2022-10-26T09:19:35.204Z,96173.91
2022-10-26T09:21:49.407Z,96184.88
2022-10-26T09:24:03.474Z,96096.91
2022-10-26T09:26:12.722Z,96172.31
2022-10-26T09:28:18.506Z,96176.50
2022-10-26T09:30:22.668Z,96179.09
2022-10-26T09:32:31.988Z,96179.72
2022-10-26T09:34:40.592Z,96185.88
2022-10-26T09:36:44.891Z,96197.81
2022-10-26T09:38:54.635Z,96204.63
2022-10-26T09:41:03.152Z,95983.91
2022-10-26T09:43:11.845Z,96197.22
2022-10-26T09:45:19.102Z,96202.81
2022-10-26T09:47:31.726Z,96206.56
2022-10-26T09:49:45.325Z,96206.09
2022-10-26T09:51:49.894Z,96203.78
2022-10-26T09:53:52.584Z,96216.41
2022-10-26T09:56:03.274Z,96059.72
2022-10-26T09:58:10.870Z,96226.81
2022-10-26T10:00:16.140Z,95934.03
2022-10-26T10:02:38.322Z,96223.81
2022-10-26T10:04:48.003Z,96224.94
2022-10-26T10:06:54.077Z,96225.66
2022-10-26T10:09:10.771Z,96236.91
2022-10-26T10:11:15.018Z,96228.78
2022-10-26T10:13:21.404Z,96226.66
2022-10-26T10:15:26.050Z,96228.50
2022-10-26T10:17:29.085Z,96219.75
2022-10-26T10:19:33.507Z,96117.81
2022-10-26T10:21:38.637Z,96224.41
2022-10-26T10:23:51.986Z,96226.03
2022-10-26T10:26:00.883Z,96224.84
2022-10-26T10:28:04.385Z,96225.91
2022-10-26T10:30:22.603Z,96218.94
2022-10-26T10:32:27.715Z,96188.88
2022-10-26T10:34:32.362Z,95937.44
2022-10-26T10:36:35.257Z,96229.81
2022-10-26T10:38:40.321Z,96243.78
2022-10-26T10:40:51.542Z,96243.88
2022-10-26T10:43:03.996Z,96243.47
2022-10-26T10:45:08.889Z,96254.97
2022-10-26T10:47:20.762Z,96249.53
2022-10-26T10:49:27.514Z,96248.88
2022-10-26T10:51:36.133Z,96233.63
2022-10-26T10:53:46.469Z,96254.66
2022-10-26T10:55:58.933Z,96257.63
2022-10-26T10:58:15.338Z,96197.38
2022-10-26T11:00:20.333Z,96258.72
2022-10-26T11:02:45.520Z,96223.94
2022-10-26T11:05:05.399Z,96262.28
2022-10-26T11:07:11.081Z,96263.69
2022-10-26T11:09:17.036Z,96261.25
2022-10-26T11:11:25.136Z,96264.09
2022-10-26T11:13:34.645Z,96254.63
2022-10-26T11:15:40.384Z,96266.38
2022-10-26T11:17:48.812Z,96214.94
2022-10-26T11:19:56.884Z,96261.16
2022-10-26T11:21:59.662Z,96262.28
2022-10-26T11:24:14.471Z,96266.75
2022-10-26T11:26:24.205Z,96266.81
2022-10-26T11:28:38.557Z,96261.66
2022-10-26T11:30:47.420Z,96265.88
2022-10-26T11:32:55.116Z,96267.91
2022-10-26T11:35:05.079Z,96266.44
2022-10-26T11:37:15.936Z,96273.47
2022-10-26T11:39:24.818Z,96279.84
2022-10-26T11:41:33.429Z,96231.44
2022-10-26T11:43:41.097Z,96277.25
2022-10-26T11:45:46.869Z,96279.28
2022-10-26T11:47:53.854Z,96288.75
2022-10-26T11:50:04.890Z,96287.84
2022-10-26T11:52:16.866Z,96281.19
2022-10-26T11:54:25.202Z,96135.72
2022-10-26T11:56:34.003Z,96281.59
2022-10-26T11:58:38.942Z,96287.63
2022-10-26T12:00:49.307Z,96281.09
2022-10-26T12:02:57.281Z,96291.22
2022-10-26T12:05:06.528Z,96279.66
2022-10-26T12:07:14.604Z,96286.53
2022-10-26T12:09:21.483Z,96284.75
2022-10-26T12:11:38.711Z,96177.47
2022-10-26T12:13:48.570Z,96280.22
2022-10-26T12:16:03.442Z,96281.81
2022-10-26T12:18:20.281Z,96202.91
2022-10-26T12:20:54.208Z,96285.56
2022-10-26T12:22:57.549Z,96249.78
2022-10-26T12:25:13.891Z,96291.09
2022-10-26T12:27:50.699Z,96303.69
2022-10-26T12:30:16.507Z,96294.38
2022-10-26T12:32:53.269Z,96291.38
2022-10-26T12:35:03.450Z,96293.75
2022-10-26T12:37:24.213Z,96298.06
2022-10-26T12:39:32.716Z,96257.34
2022-10-26T12:41:39.157Z,96300.06
2022-10-26T12:43:42.562Z,96307.28
2022-10-26T12:45:48.240Z,96295.91
2022-10-26T12:48:10.663Z,96184.25
2022-10-26T12:50:24.786Z,96266.13
2022-10-26T12:52:48.682Z,96297.00
2022-10-26T12:55:15.313Z,96301.44
2022-10-26T12:57:25.417Z,96306.66
2022-10-26T12:59:39.734Z,96296.69
2022-10-26T13:02:04.680Z,96312.50
2022-10-26T13:04:21.512Z,96306.22
2022-10-26T13:06:49.674Z,96304.34
2022-10-26T13:08:59.083Z,96302.97
2022-10-26T13:11:07.885Z,96312.69
2022-10-26T13:13:24.290Z,96308.66
2022-10-26T13:15:30.002Z,96301.59
2022-10-26T13:17:35.506Z,96312.31
2022-10-26T13:19:44.260Z,96304.88
2022-10-26T13:21:49.919Z,96308.84
2022-10-26T13:24:01.786Z,96312.91
2022-10-26T13:26:12.026Z,96307.94
2022-10-26T13:28:33.589Z,96306.06
2022-10-26T13:30:44.130Z,96310.31
2022-10-26T13:32:54.370Z,96310.47
2022-10-26T13:35:01.117Z,96308.88
2022-10-26T13:37:20.218Z,96312.09
2022-10-26T13:39:27.072Z,96313.69
2022-10-26T13:41:34.851Z,96310.84
2022-10-26T13:43:38.548Z,96272.13
2022-10-26T13:45:50.453Z,96315.13
2022-10-26T13:48:00.045Z,96318.31
2022-10-26T13:50:08.432Z,96323.03
2022-10-26T13:52:17.377Z,96136.56
2022-10-26T13:54:27.333Z,96015.31
2022-10-26T13:56:34.802Z,96334.25
2022-10-26T13:58:43.079Z,96322.69
2022-10-26T14:01:01.490Z,96333.47
2022-10-26T14:03:15.769Z,96078.63
2022-10-26T14:05:20.142Z,96329.56
2022-10-26T14:07:37.148Z,96333.78
2022-10-26T14:09:40.059Z,96336.44
2022-10-26T14:11:47.588Z,96339.00
2022-10-26T14:13:51.451Z,96339.88
2022-10-26T14:15:56.526Z,96350.19
2022-10-26T14:18:01.484Z,96319.28
2022-10-26T14:20:06.263Z,96351.44
2022-10-26T14:22:09.013Z,96360.63
2022-10-26T14:24:24.863Z,96355.28
2022-10-26T14:26:41.200Z,96063.03
2022-10-26T14:28:50.410Z,96267.94
2022-10-26T14:30:53.291Z,96368.25
2022-10-26T14:32:56.991Z,96372.47
2022-10-26T14:34:59.979Z,96364.47
2022-10-26T14:37:05.556Z,96362.16
2022-10-26T14:39:29.251Z,96069.25
2022-10-26T14:41:36.008Z,96366.84
2022-10-26T14:43:39.293Z,96368.66
2022-10-26T14:45:49.935Z,96362.69
2022-10-26T14:47:53.077Z,96374.41
2022-10-26T14:49:56.720Z,96378.56
2022-10-26T14:52:00.638Z,96375.13
2022-10-26T14:54:05.828Z,96381.22
2022-10-26T14:56:28.611Z,96129.41
2022-10-26T14:58:32.355Z,96379.63
2022-10-26T15:00:36.043Z,96377.09
2022-10-26T15:02:39.151Z,96374.84
2022-10-26T15:04:43.653Z,96377.84
2022-10-26T15:06:47.273Z,96400.03
2022-10-26T15:08:57.344Z,96380.81
2022-10-26T15:11:08.237Z,96385.44
2022-10-26T15:13:11.584Z,96386.13
2022-10-26T15:17:31.955Z,96271.66
2022-10-26T15:19:35.065Z,96395.25
2022-10-26T15:21:47.013Z,96396.63
2022-10-26T15:23:50.260Z,96394.59
2022-10-26T15:25:56.029Z,96396.84
2022-10-26T15:28:11.845Z,96365.53
2022-10-26T15:30:24.251Z,96393.13
2022-10-26T15:32:31.227Z,96387.34
2022-10-26T15:34:34.036Z,96238.78
2022-10-26T15:36:36.968Z,96407.75
2022-10-26T15:38:39.696Z,96408.72
2022-10-26T15:40:44.628Z,96406.84
2022-10-26T15:42:50.831Z,96400.69
2022-10-26T15:44:55.402Z,96405.94
2022-10-26T15:47:06.426Z,96404.88
2022-10-26T15:49:18.008Z,96415.50
2022-10-26T15:51:20.732Z,96413.53
2022-10-26T15:53:27.461Z,96321.06
2022-10-26T15:55:31.751Z,96416.00
2022-10-26T15:57:34.637Z,96418.19
2022-10-26T15:59:38.378Z,96419.38
2022-10-26T16:01:42.951Z,96378.72
2022-10-26T16:03:46.025Z,96432.84
2022-10-26T16:05:50.491Z,96384.34
2022-10-26T16:07:53.474Z,96433.31
2022-10-26T16:09:56.471Z,96427.16
2022-10-26T16:11:59.279Z,96431.31
2022-10-26T16:14:03.839Z,96273.78
2022-10-26T16:16:13.694Z,96438.88
2022-10-26T16:18:17.826Z,96433.13
2022-10-26T16:20:23.255Z,96261.38
2022-10-26T16:22:26.178Z,96441.03
2022-10-26T16:24:30.224Z,96439.94
2022-10-26T16:26:33.020Z,96448.00
2022-10-26T16:28:36.281Z,96449.66
2022-10-26T16:30:42.309Z,96443.19
2022-10-26T16:32:45.385Z,96353.13
2022-10-26T16:34:49.540Z,96445.50
2022-10-26T16:36:52.280Z,96021.03
2022-10-26T16:38:55.679Z,96416.78
2022-10-26T16:41:05.715Z,96458.47
2022-10-26T16:43:08.521Z,96392.50
2022-10-26T16:45:12.283Z,96457.25
2022-10-26T16:47:15.334Z,96471.94
2022-10-26T16:49:18.140Z,96474.44
2022-10-26T16:51:23.667Z,96501.16
2022-10-26T16:53:26.576Z,95976.22
2022-10-26T16:55:30.912Z,96245.59
2022-10-26T16:57:37.682Z,95778.19
2022-10-26T16:59:42.573Z,96510.72
2022-10-26T17:01:47.912Z,96483.03
2022-10-26T17:03:53.468Z,96595.59
2022-10-26T17:05:58.149Z,96377.69
2022-10-26T17:08:02.719Z,95736.94
2022-10-26T17:10:06.585Z,95755.06
2022-10-26T17:12:11.200Z,95733.94
2022-10-26T17:14:14.366Z,95913.75
2022-10-26T17:16:19.833Z,96619.94
2022-10-26T17:18:23.151Z,95640.03
2022-10-26T17:20:26.020Z,94995.81
2022-10-26T17:22:28.949Z,96414.28
2022-10-26T17:24:33.421Z,95733.19
2022-10-26T17:26:36.342Z,96329.41
2022-10-26T17:28:39.384Z,95825.66
2022-10-26T17:30:42.610Z,95739.97
2022-10-26T17:32:45.358Z,96328.41
2022-10-26T17:34:48.031Z,96511.81
2022-10-26T17:36:50.693Z,96511.91
2022-10-26T17:38:54.791Z,96524.47
2022-10-26T17:41:02.902Z,96443.69
2022-10-26T17:43:05.593Z,96526.09
2022-10-26T17:45:10.187Z,96563.69
2022-10-26T17:47:12.861Z,96116.94
2022-10-26T17:49:15.655Z,96537.88
2022-10-26T17:51:20.390Z,96440.56
2022-10-26T17:53:23.261Z,96463.22
2022-10-26T17:55:25.969Z,96532.84
2022-10-26T17:57:30.044Z,96543.16
2022-10-26T17:59:32.771Z,96418.28
2022-10-26T18:01:35.451Z,96442.41
2022-10-26T18:03:39.012Z,96552.78
2022-10-26T18:05:41.660Z,96515.41
2022-10-26T18:07:44.349Z,96553.06
2022-10-26T18:09:47.215Z,96554.97
2022-10-26T18:11:52.193Z,96556.84
2022-10-26T18:13:59.239Z,96556.63
2022-10-26T18:16:06.557Z,96363.19
2022-10-26T18:18:09.301Z,96564.47
2022-10-26T18:20:12.302Z,96562.25
2022-10-26T18:22:15.002Z,96564.94
2022-10-26T18:24:17.776Z,96564.91
2022-10-26T18:26:22.263Z,96564.09
2022-10-26T18:28:24.941Z,96567.88
2022-10-26T18:30:29.067Z,96562.25
2022-10-26T18:32:31.726Z,96562.31
2022-10-26T18:34:34.411Z,96565.31
2022-10-26T18:38:41.209Z,96536.09
2022-10-26T18:40:45.738Z,96572.97
2022-10-26T18:42:51.973Z,96577.84
2022-10-26T18:47:05.599Z,96584.91
2022-10-26T18:49:08.351Z,96584.63
2022-10-26T18:51:12.849Z,96580.00
2022-10-26T18:53:16.816Z,96585.97
2022-10-26T18:55:19.505Z,96224.28
2022-10-26T18:57:26.840Z,96596.91
2022-10-26T18:59:29.642Z,96584.22
2022-10-26T19:01:34.324Z,96487.06
2022-10-26T19:03:39.734Z,96598.28
2022-10-26T19:05:42.482Z,96600.78
2022-10-26T19:07:45.153Z,96459.31
2022-10-26T19:09:47.844Z,96594.41
2022-10-26T19:11:50.531Z,96603.97
2022-10-26T19:13:54.033Z,96505.53
2022-10-26T19:16:03.383Z,96605.31
2022-10-26T19:18:06.455Z,96607.78
2022-10-26T19:20:12.891Z,96547.81
2022-10-26T19:22:15.581Z,96488.31
2022-10-26T19:24:20.628Z,96468.97
2022-10-26T19:26:25.434Z,96608.56
2022-10-26T19:28:28.328Z,96641.25
2022-10-26T19:30:30.968Z,96611.06
2022-10-26T19:32:33.676Z,96611.69
2022-10-26T19:34:36.361Z,96617.19
2022-10-26T19:36:44.084Z,96608.56
2022-10-26T19:38:47.240Z,96607.50
2022-10-26T19:40:56.974Z,96633.53
2022-10-26T19:42:59.689Z,96624.84
2022-10-26T19:45:02.457Z,96624.00
2022-10-26T19:47:05.662Z,96621.28
2022-10-26T19:49:08.767Z,96626.97
2022-10-26T19:51:11.501Z,96626.94
2022-10-26T19:53:17.336Z,96619.34
2022-10-26T19:55:20.133Z,96623.41
2022-10-26T19:57:22.931Z,96622.03
2022-10-26T19:59:26.720Z,96631.25
2022-10-26T20:01:29.515Z,96628.25
2022-10-26T20:03:32.442Z,96630.69
2022-10-26T20:05:35.282Z,96571.44
2022-10-26T20:07:38.085Z,96636.03
2022-10-26T20:09:42.148Z,96650.56
2022-10-26T20:11:46.468Z,96634.88
2022-10-26T20:13:49.825Z,96639.66
2022-10-26T20:15:53.445Z,96506.53
2022-10-26T20:17:56.132Z,96443.66
2022-10-26T20:19:58.840Z,96527.16
2022-10-26T20:22:01.520Z,96635.72
2022-10-26T20:24:07.862Z,96635.66
2022-10-26T20:26:18.359Z,96570.47
2022-10-26T20:28:22.717Z,96648.97
2022-10-26T20:30:25.407Z,96643.56
2022-10-26T20:32:29.311Z,96246.63
2022-10-26T20:34:32.212Z,96083.53
2022-10-26T20:36:35.129Z,96648.66
2022-10-26T20:38:39.705Z,96322.16
2022-10-26T20:40:43.079Z,96679.00
2022-10-26T20:44:53.845Z,96646.56
2022-10-26T20:46:57.074Z,96662.56
2022-10-26T20:49:00.256Z,96699.66
2022-10-26T20:51:07.351Z,96668.25
2022-10-26T20:53:17.536Z,96571.84
2022-10-26T20:55:30.265Z,96725.56
2022-10-26T20:57:36.354Z,96683.94
2022-10-26T20:59:46.500Z,96662.31
2022-10-26T21:01:49.361Z,96663.13
2022-10-26T21:03:52.686Z,96586.53
2022-10-26T21:05:56.798Z,96664.00
2022-10-26T21:07:59.625Z,96667.78
2022-10-26T21:10:02.418Z,96661.25
2022-10-26T21:12:05.586Z,96658.03
2022-10-26T21:14:08.282Z,96668.34
2022-10-26T21:16:12.579Z,96254.22
2022-10-26T21:18:15.297Z,96669.06
2022-10-26T21:20:18.042Z,96546.53
2022-10-26T21:22:20.787Z,96659.56
2022-10-26T21:24:23.567Z,96666.03
2022-10-26T21:26:26.381Z,96669.44
2022-10-26T21:28:34.817Z,96597.25
2022-10-26T21:30:37.552Z,96662.59
2022-10-26T21:32:41.682Z,96673.59
2022-10-26T21:34:44.396Z,96667.31
2022-10-26T21:36:47.056Z,96666.38
2022-10-26T21:38:49.730Z,96675.34
2022-10-26T21:40:52.448Z,96662.25
2022-10-26T21:42:55.168Z,96674.72
2022-10-26T21:44:57.858Z,96671.06
2022-10-26T21:47:00.671Z,96693.31
2022-10-26T21:49:05.071Z,96695.06
2022-10-26T21:51:09.223Z,96687.00
2022-10-26T21:53:11.910Z,96688.72
2022-10-26T21:55:15.114Z,96690.66
2022-10-26T21:57:17.899Z,96694.25
2022-10-26T21:59:20.635Z,96235.13
2022-10-26T22:01:23.928Z,96569.09
2022-10-26T22:03:26.979Z,96595.13
2022-10-26T22:05:31.223Z,96687.91
2022-10-26T22:07:33.909Z,96663.44
2022-10-26T22:09:44.879Z,96687.09
2022-10-26T22:11:59.367Z,96690.50
2022-10-26T22:14:02.162Z,96437.63
2022-10-26T22:16:07.751Z,96688.09
2022-10-26T22:18:10.442Z,96679.44
2022-10-26T22:20:13.365Z,96676.31
2022-10-26T22:22:17.407Z,96687.66
2022-10-26T22:24:20.142Z,96050.69
2022-10-26T22:26:24.594Z,96638.72
2022-10-26T22:28:27.289Z,96683.84
2022-10-26T22:30:32.701Z,96689.25
2022-10-26T22:32:35.423Z,96112.53
2022-10-26T22:34:38.104Z,96447.81
2022-10-26T22:36:40.802Z,96623.75
2022-10-26T22:38:44.838Z,96687.91
2022-10-26T22:40:54.834Z,96683.34
2022-10-26T22:42:57.598Z,96689.47
2022-10-26T22:45:00.341Z,96696.03
2022-10-26T22:47:03.088Z,96525.97
2022-10-26T22:49:06.094Z,96702.34
2022-10-26T22:51:10.863Z,96692.63
2022-10-26T22:53:13.567Z,96688.84
2022-10-26T22:55:17.631Z,96046.78
2022-10-26T22:57:20.360Z,96687.13
2022-10-26T22:59:23.067Z,96627.81
2022-10-26T23:01:28.339Z,96683.84
2022-10-26T23:03:31.152Z,96602.31
2022-10-26T23:05:33.855Z,96680.84
2022-10-26T23:07:36.542Z,96681.72
2022-10-26T23:09:39.288Z,96695.41
2022-10-26T23:11:43.325Z,96678.72
2022-10-26T23:13:46.141Z,96683.28
2022-10-26T23:15:48.810Z,96678.38
2022-10-26T23:17:51.797Z,96675.88
2022-10-26T23:19:54.645Z,96679.38
2022-10-26T23:21:57.282Z,96392.41
2022-10-26T23:24:00.017Z,96681.59
2022-10-26T23:26:03.303Z,96686.16
2022-10-26T23:28:07.429Z,96674.88
2022-10-26T23:30:11.150Z,96672.25
2022-10-26T23:32:13.845Z,96670.63
2022-10-26T23:34:16.496Z,96680.09
2022-10-26T23:36:20.018Z,96693.75
2022-10-26T23:38:22.752Z,96684.84
2022-10-26T23:40:25.484Z,96681.59
2022-10-26T23:42:28.314Z,96683.13
2022-10-26T23:44:32.395Z,96678.34
2022-10-26T23:46:35.146Z,96679.91
2022-10-26T23:48:37.969Z,96423.56
2022-10-26T23:50:42.948Z,96482.63
2022-10-26T23:52:48.032Z,96693.78
2022-10-26T23:54:50.815Z,96688.09
2022-10-26T23:56:53.555Z,96686.59
2022-10-26T23:58:56.322Z,96689.38
